Airfield :
LOGIN :

Register | Disclaimer

   EN    FR    IT 

 










Legend :    VFR   Marginal VFR   IFR   Intensive IFR   Very Intensive IFR
Visi :
Ceiling :
>= 8 km
>= 3000ft
5 to 8 km
1000 to 3000 ft
1500m to 5 km
500 to 1000 ft
800 to 1500m
200 to 500 ft
< 800m
< 200 ft
Symbols :   Thunderstorms  Fog  Heavy snow  Heavy precipitations  Wind > 20 kt
SIGMETs :     Misc.  Thunderstorms  Icing  Turbulence  Mountain Waves  Volcanic Ashes






- Airport Elevation : 286 ft
- IATA code : FFD


EGVA - RAF Fairford

CURRENT METAR :
  • 100915Z AUTO 19018G24KT 9999 -DZ OVC014 09/07 A2992 RMK AO2 RAB01E12DZB12E13DZB15 SLP138

EXPIRED METARs :
  • 100913Z AUTO 20018G24KT 9999 OVC014 09/07 A2992 RMK AO2 RAB01E12DZB12E13 SLP138
  • 100901Z AUTO 19019G24KT 9999 -RA OVC015 08/07 A2993 RMK AO2 RAB01 SLP142
  • 100844Z AUTO 19013G19KT 9999 OVC018 08/07 A2995 RMK AO2 RAB02E44 SLP148
  • 100827Z AUTO 20014G20KT 9999 -RA OVC018 08/06 A2996 RMK AO2 RAB02 SLP152
  • 100807Z AUTO 19013KT 9999 -RA SCT016 OVC021 07/06 A2998 RMK AO2 RAB02 CIG 014V021 SLP159
  • 100802Z AUTO 19014G18KT 9999 -RA BKN015 OVC021 07/06 A2998 RMK AO2 RAB02 SLP159
  • 100731Z AUTO 19011KT 9999 BKN014 OVC020 07/05 A3000 RMK AO2 CIG 014V019 CIG 013 RWY09 SLP165
  • 100726Z AUTO 20011KT 9999 OVC016 07/05 A3001 RMK AO2 CIG 014V019 CIG 015 RWY09 SLP169
  • 100716Z AUTO 20011KT 9999 OVC019 07/05 A3001 RMK AO2 OVC V BKN CIG 018 RWY09 SLP169
  • 100656Z AUTO 20010KT 9999 BKN023 BKN029 OVC080 07/05 A3003 RMK AO2 CIG 023V029 SLP175 T00680048

Expired Forecast.



MET'MAP, your aeronautical weather chart ! - Copyright ORBIFLY December 2007 - Disclaimer

ORBIFLY MET'MAP TEAM :

Programming & Development : Alexandra Zaïnal
Concept & original design : Baudouin d'Aumeries
Assistance for programming : Marc-Olivier Méhu
Technical & hardware support : Manuel Goepfert

Contact : metmap@orbifly.com




SOURCES & CREDITS :

   NOAA